sensor_id;sensor_type;location;lat;lon;timestamp;P1;durP1;ratioP1;P2;durP2;ratioP2
11675;SDS011;5894;42.768;23.404;2023-02-01T00:02:11;65.00;;;21.37;;
11675;SDS011;5894;42.768;23.404;2023-02-01T00:04:38;48.57;;;17.50;;
11675;SDS011;5894;42.768;23.404;2023-02-01T00:07:05;44.90;;;16.90;;
11675;SDS011;5894;42.768;23.404;2023-02-01T00:09:32;69.00;;;22.77;;
11675;SDS011;5894;42.768;23.404;2023-02-01T00:12:00;58.47;;;18.33;;
11675;SDS011;5894;42.768;23.404;2023-02-01T00:14:28;62.90;;;20.03;;
11675;SDS011;5894;42.768;23.404;2023-02-01T00:16:55;36.27;;;13.77;;
11675;SDS011;5894;42.768;23.404;2023-02-01T00:19:21;40.67;;;13.83;;
11675;SDS011;5894;42.768;23.404;2023-02-01T00:21:48;46.00;;;16.07;;
11675;SDS011;5894;42.768;23.404;2023-02-01T00:24:15;75.63;;;23.93;;
11675;SDS011;5894;42.768;23.404;2023-02-01T00:26:43;53.23;;;21.20;;
11675;SDS011;5894;42.768;23.404;2023-02-01T00:29:14;51.87;;;19.60;;
11675;SDS011;5894;42.768;23.404;2023-02-01T00:31:42;44.50;;;16.10;;
11675;SDS011;5894;42.768;23.404;2023-02-01T00:34:10;42.47;;;15.93;;
11675;SDS011;5894;42.768;23.404;2023-02-01T00:36:39;34.50;;;12.37;;
11675;SDS011;5894;42.768;23.404;2023-02-01T00:39:07;29.03;;;10.50;;
11675;SDS011;5894;42.768;23.404;2023-02-01T00:41:34;28.00;;;13.10;;
11675;SDS011;5894;42.768;23.404;2023-02-01T00:44:01;23.30;;;11.23;;
11675;SDS011;5894;42.768;23.404;2023-02-01T00:46:30;22.13;;;10.17;;
11675;SDS011;5894;42.768;23.404;2023-02-01T00:48:57;12.40;;;8.17;;
11675;SDS011;5894;42.768;23.404;2023-02-01T00:51:25;13.67;;;8.03;;
11675;SDS011;5894;42.768;23.404;2023-02-01T00:53:54;12.33;;;6.80;;
11675;SDS011;5894;42.768;23.404;2023-02-01T00:56:23;9.77;;;6.23;;
11675;SDS011;5894;42.768;23.404;2023-02-01T00:58:50;8.83;;;5.23;;
11675;SDS011;5894;42.768;23.404;2023-02-01T01:01:17;6.27;;;4.80;;
11675;SDS011;5894;42.768;23.404;2023-02-01T01:03:48;5.87;;;4.43;;
11675;SDS011;5894;42.768;23.404;2023-02-01T01:06:17;7.10;;;4.73;;
11675;SDS011;5894;42.768;23.404;2023-02-01T01:08:46;8.30;;;4.73;;
11675;SDS011;5894;42.768;23.404;2023-02-01T01:11:14;5.70;;;4.70;;
11675;SDS011;5894;42.768;23.404;2023-02-01T01:13:43;5.03;;;4.43;;
11675;SDS011;5894;42.768;23.404;2023-02-01T01:16:13;6.30;;;4.90;;
11675;SDS011;5894;42.768;23.404;2023-02-01T01:18:40;7.27;;;5.17;;
11675;SDS011;5894;42.768;23.404;2023-02-01T01:21:09;6.40;;;4.70;;
11675;SDS011;5894;42.768;23.404;2023-02-01T01:23:38;5.20;;;4.37;;
11675;SDS011;5894;42.768;23.404;2023-02-01T01:26:05;5.03;;;4.03;;
11675;SDS011;5894;42.768;23.404;2023-02-01T01:28:33;5.60;;;4.27;;
11675;SDS011;5894;42.768;23.404;2023-02-01T01:31:00;5.77;;;4.00;;
11675;SDS011;5894;42.768;23.404;2023-02-01T01:33:27;7.77;;;4.40;;
11675;SDS011;5894;42.768;23.404;2023-02-01T01:35:54;8.30;;;4.27;;
11675;SDS011;5894;42.768;23.404;2023-02-01T01:38:23;5.87;;;4.50;;
11675;SDS011;5894;42.768;23.404;2023-02-01T01:40:50;5.07;;;4.00;;
11675;SDS011;5894;42.768;23.404;2023-02-01T01:43:18;6.73;;;4.40;;
11675;SDS011;5894;42.768;23.404;2023-02-01T01:45:47;6.50;;;4.20;;
11675;SDS011;5894;42.768;23.404;2023-02-01T01:48:16;6.83;;;4.07;;
11675;SDS011;5894;42.768;23.404;2023-02-01T01:50:48;5.10;;;4.20;;
11675;SDS011;5894;42.768;23.404;2023-02-01T01:53:18;7.17;;;4.40;;
11675;SDS011;5894;42.768;23.404;2023-02-01T01:55:51;7.23;;;4.43;;
11675;SDS011;5894;42.768;23.404;2023-02-01T01:58:21;5.97;;;4.13;;
11675;SDS011;5894;42.768;23.404;2023-02-01T02:00:51;6.07;;;3.80;;
11675;SDS011;5894;42.768;23.404;2023-02-01T02:03:20;8.33;;;4.63;;
11675;SDS011;5894;42.768;23.404;2023-02-01T02:05:50;6.30;;;3.80;;
11675;SDS011;5894;42.768;23.404;2023-02-01T02:08:20;6.50;;;3.63;;
11675;SDS011;5894;42.768;23.404;2023-02-01T02:10:50;4.97;;;3.90;;
11675;SDS011;5894;42.768;23.404;2023-02-01T02:13:28;5.47;;;3.93;;
11675;SDS011;5894;42.768;23.404;2023-02-01T02:16:02;5.33;;;3.87;;
11675;SDS011;5894;42.768;23.404;2023-02-01T02:18:38;5.93;;;4.07;;
11675;SDS011;5894;42.768;23.404;2023-02-01T02:21:12;5.77;;;4.00;;
11675;SDS011;5894;42.768;23.404;2023-02-01T02:23:55;5.73;;;3.90;;
11675;SDS011;5894;42.768;23.404;2023-02-01T02:26:37;6.77;;;4.20;;
11675;SDS011;5894;42.768;23.404;2023-02-01T02:29:28;7.30;;;4.73;;
11675;SDS011;5894;42.768;23.404;2023-02-01T02:35:16;5.07;;;3.50;;
11675;SDS011;5894;42.768;23.404;2023-02-01T02:37:52;6.57;;;3.40;;
11675;SDS011;5894;42.768;23.404;2023-02-01T02:40:25;5.40;;;3.70;;
11675;SDS011;5894;42.768;23.404;2023-02-01T02:43:00;5.60;;;3.80;;
11675;SDS011;5894;42.768;23.404;2023-02-01T02:46:01;5.03;;;3.60;;
11675;SDS011;5894;42.768;23.404;2023-02-01T02:48:51;5.53;;;3.67;;
11675;SDS011;5894;42.768;23.404;2023-02-01T02:51:23;3.77;;;3.30;;
11675;SDS011;5894;42.768;23.404;2023-02-01T02:54:13;6.10;;;4.20;;
11675;SDS011;5894;42.768;23.404;2023-02-01T02:57:00;5.63;;;4.10;;
11675;SDS011;5894;42.768;23.404;2023-02-01T02:59:48;7.33;;;3.90;;
11675;SDS011;5894;42.768;23.404;2023-02-01T03:02:33;6.70;;;4.30;;
11675;SDS011;5894;42.768;23.404;2023-02-01T03:05:18;4.47;;;3.63;;
11675;SDS011;5894;42.768;23.404;2023-02-01T03:07:52;5.03;;;3.90;;
11675;SDS011;5894;42.768;23.404;2023-02-01T03:10:24;6.73;;;4.87;;
11675;SDS011;5894;42.768;23.404;2023-02-01T03:12:59;5.37;;;4.03;;
11675;SDS011;5894;42.768;23.404;2023-02-01T03:15:31;6.60;;;4.37;;
11675;SDS011;5894;42.768;23.404;2023-02-01T03:18:03;6.90;;;4.23;;
11675;SDS011;5894;42.768;23.404;2023-02-01T03:20:38;6.40;;;4.00;;
11675;SDS011;5894;42.768;23.404;2023-02-01T03:23:11;6.33;;;4.07;;
11675;SDS011;5894;42.768;23.404;2023-02-01T03:25:42;6.47;;;4.60;;
11675;SDS011;5894;42.768;23.404;2023-02-01T03:28:10;6.70;;;4.27;;
11675;SDS011;5894;42.768;23.404;2023-02-01T03:30:38;6.30;;;4.17;;
11675;SDS011;5894;42.768;23.404;2023-02-01T03:33:10;7.23;;;5.27;;
11675;SDS011;5894;42.768;23.404;2023-02-01T03:35:48;11.20;;;6.90;;
11675;SDS011;5894;42.768;23.404;2023-02-01T03:38:26;12.30;;;7.77;;
11675;SDS011;5894;42.768;23.404;2023-02-01T03:40:57;15.43;;;9.23;;
11675;SDS011;5894;42.768;23.404;2023-02-01T03:43:31;16.00;;;9.30;;
11675;SDS011;5894;42.768;23.404;2023-02-01T03:46:04;12.53;;;8.23;;
11675;SDS011;5894;42.768;23.404;2023-02-01T03:48:36;18.63;;;9.70;;
11675;SDS011;5894;42.768;23.404;2023-02-01T03:51:04;11.67;;;6.77;;
11675;SDS011;5894;42.768;23.404;2023-02-01T03:53:34;34.37;;;16.03;;
11675;SDS011;5894;42.768;23.404;2023-02-01T03:56:05;37.17;;;17.07;;
11675;SDS011;5894;42.768;23.404;2023-02-01T03:58:33;28.83;;;14.70;;
11675;SDS011;5894;42.768;23.404;2023-02-01T04:01:00;31.17;;;16.20;;
11675;SDS011;5894;42.768;23.404;2023-02-01T04:03:30;15.53;;;8.23;;
11675;SDS011;5894;42.768;23.404;2023-02-01T04:05:57;19.33;;;10.20;;
11675;SDS011;5894;42.768;23.404;2023-02-01T04:08:27;26.70;;;13.33;;
11675;SDS011;5894;42.768;23.404;2023-02-01T04:10:55;22.00;;;10.87;;
11675;SDS011;5894;42.768;23.404;2023-02-01T04:13:22;11.47;;;6.77;;
11675;SDS011;5894;42.768;23.404;2023-02-01T04:15:48;10.23;;;5.97;;
11675;SDS011;5894;42.768;23.404;2023-02-01T04:18:15;8.50;;;4.73;;
11675;SDS011;5894;42.768;23.404;2023-02-01T04:20:43;5.80;;;3.97;;
11675;SDS011;5894;42.768;23.404;2023-02-01T04:23:10;7.50;;;4.07;;
11675;SDS011;5894;42.768;23.404;2023-02-01T04:25:37;6.67;;;4.03;;
11675;SDS011;5894;42.768;23.404;2023-02-01T04:28:05;5.10;;;3.73;;
11675;SDS011;5894;42.768;23.404;2023-02-01T04:30:32;5.67;;;4.13;;
11675;SDS011;5894;42.768;23.404;2023-02-01T04:32:59;6.57;;;4.30;;
11675;SDS011;5894;42.768;23.404;2023-02-01T04:35:25;7.50;;;4.50;;
11675;SDS011;5894;42.768;23.404;2023-02-01T04:37:52;8.43;;;4.90;;
11675;SDS011;5894;42.768;23.404;2023-02-01T04:40:19;8.07;;;5.70;;
11675;SDS011;5894;42.768;23.404;2023-02-01T04:42:46;9.03;;;5.60;;
11675;SDS011;5894;42.768;23.404;2023-02-01T04:45:14;9.63;;;6.00;;
11675;SDS011;5894;42.768;23.404;2023-02-01T04:47:41;9.27;;;5.07;;
11675;SDS011;5894;42.768;23.404;2023-02-01T04:50:08;11.53;;;6.30;;
11675;SDS011;5894;42.768;23.404;2023-02-01T04:52:36;7.47;;;4.40;;
11675;SDS011;5894;42.768;23.404;2023-02-01T04:55:03;5.97;;;3.77;;
11675;SDS011;5894;42.768;23.404;2023-02-01T04:57:30;7.03;;;3.80;;
11675;SDS011;5894;42.768;23.404;2023-02-01T04:59:57;5.90;;;4.03;;
11675;SDS011;5894;42.768;23.404;2023-02-01T05:02:25;5.10;;;3.53;;
11675;SDS011;5894;42.768;23.404;2023-02-01T05:04:51;5.17;;;3.47;;
11675;SDS011;5894;42.768;23.404;2023-02-01T05:07:19;6.20;;;3.87;;
11675;SDS011;5894;42.768;23.404;2023-02-01T05:09:46;5.03;;;3.47;;
11675;SDS011;5894;42.768;23.404;2023-02-01T05:12:12;6.97;;;4.37;;
11675;SDS011;5894;42.768;23.404;2023-02-01T05:14:57;5.07;;;3.83;;
11675;SDS011;5894;42.768;23.404;2023-02-01T05:17:25;7.83;;;6.03;;
11675;SDS011;5894;42.768;23.404;2023-02-01T05:19:51;6.90;;;5.43;;
11675;SDS011;5894;42.768;23.404;2023-02-01T05:22:18;7.40;;;4.43;;
11675;SDS011;5894;42.768;23.404;2023-02-01T05:24:45;6.63;;;4.03;;
11675;SDS011;5894;42.768;23.404;2023-02-01T05:27:12;5.37;;;4.17;;
11675;SDS011;5894;42.768;23.404;2023-02-01T05:29:38;6.93;;;4.53;;
11675;SDS011;5894;42.768;23.404;2023-02-01T05:32:05;6.77;;;4.60;;
11675;SDS011;5894;42.768;23.404;2023-02-01T05:34:33;8.00;;;5.33;;
11675;SDS011;5894;42.768;23.404;2023-02-01T05:37:00;7.77;;;5.20;;
11675;SDS011;5894;42.768;23.404;2023-02-01T05:39:27;15.33;;;7.43;;
11675;SDS011;5894;42.768;23.404;2023-02-01T05:41:53;8.33;;;4.93;;
11675;SDS011;5894;42.768;23.404;2023-02-01T05:44:20;8.93;;;4.70;;
11675;SDS011;5894;42.768;23.404;2023-02-01T05:46:47;8.37;;;5.13;;
11675;SDS011;5894;42.768;23.404;2023-02-01T05:49:14;10.43;;;5.13;;
11675;SDS011;5894;42.768;23.404;2023-02-01T05:51:43;7.73;;;4.83;;
11675;SDS011;5894;42.768;23.404;2023-02-01T05:54:09;6.50;;;4.53;;
11675;SDS011;5894;42.768;23.404;2023-02-01T05:56:36;7.53;;;4.20;;
11675;SDS011;5894;42.768;23.404;2023-02-01T05:59:03;6.07;;;3.97;;
11675;SDS011;5894;42.768;23.404;2023-02-01T06:01:30;6.80;;;4.40;;
11675;SDS011;5894;42.768;23.404;2023-02-01T06:03:56;6.73;;;4.80;;
11675;SDS011;5894;42.768;23.404;2023-02-01T06:06:23;9.80;;;5.03;;
11675;SDS011;5894;42.768;23.404;2023-02-01T06:08:51;7.37;;;4.23;;
11675;SDS011;5894;42.768;23.404;2023-02-01T06:11:18;6.73;;;4.50;;
11675;SDS011;5894;42.768;23.404;2023-02-01T06:13:45;7.97;;;4.53;;
11675;SDS011;5894;42.768;23.404;2023-02-01T06:16:12;9.10;;;5.00;;
11675;SDS011;5894;42.768;23.404;2023-02-01T06:18:40;10.97;;;5.43;;
11675;SDS011;5894;42.768;23.404;2023-02-01T06:21:07;6.93;;;4.67;;
11675;SDS011;5894;42.768;23.404;2023-02-01T06:23:34;8.13;;;4.23;;
11675;SDS011;5894;42.768;23.404;2023-02-01T06:26:03;9.97;;;4.40;;
11675;SDS011;5894;42.768;23.404;2023-02-01T06:28:31;7.83;;;4.33;;
11675;SDS011;5894;42.768;23.404;2023-02-01T06:31:02;9.23;;;4.03;;
11675;SDS011;5894;42.768;23.404;2023-02-01T06:33:32;3.97;;;3.40;;
11675;SDS011;5894;42.768;23.404;2023-02-01T06:35:59;8.20;;;4.00;;
11675;SDS011;5894;42.768;23.404;2023-02-01T06:38:28;6.50;;;3.97;;
11675;SDS011;5894;42.768;23.404;2023-02-01T06:40:56;7.13;;;3.97;;
11675;SDS011;5894;42.768;23.404;2023-02-01T06:43:25;6.77;;;4.03;;
11675;SDS011;5894;42.768;23.404;2023-02-01T06:45:53;6.73;;;4.30;;
11675;SDS011;5894;42.768;23.404;2023-02-01T06:48:25;8.40;;;4.37;;
11675;SDS011;5894;42.768;23.404;2023-02-01T06:50:51;14.47;;;6.07;;
11675;SDS011;5894;42.768;23.404;2023-02-01T06:53:18;8.80;;;4.30;;
11675;SDS011;5894;42.768;23.404;2023-02-01T06:55:51;6.87;;;4.03;;
11675;SDS011;5894;42.768;23.404;2023-02-01T06:58:18;7.97;;;3.93;;
11675;SDS011;5894;42.768;23.404;2023-02-01T07:00:46;6.10;;;4.10;;
11675;SDS011;5894;42.768;23.404;2023-02-01T07:03:13;5.17;;;3.50;;
11675;SDS011;5894;42.768;23.404;2023-02-01T07:05:40;5.77;;;3.40;;
11675;SDS011;5894;42.768;23.404;2023-02-01T07:08:07;5.03;;;3.47;;
11675;SDS011;5894;42.768;23.404;2023-02-01T07:10:34;8.47;;;3.90;;
11675;SDS011;5894;42.768;23.404;2023-02-01T07:13:01;8.67;;;4.80;;
11675;SDS011;5894;42.768;23.404;2023-02-01T07:15:28;7.97;;;4.87;;
11675;SDS011;5894;42.768;23.404;2023-02-01T07:17:56;7.00;;;4.70;;
11675;SDS011;5894;42.768;23.404;2023-02-01T07:20:23;8.83;;;4.80;;
11675;SDS011;5894;42.768;23.404;2023-02-01T07:22:54;7.63;;;5.00;;
11675;SDS011;5894;42.768;23.404;2023-02-01T07:25:22;5.70;;;3.50;;
11675;SDS011;5894;42.768;23.404;2023-02-01T07:27:49;7.27;;;4.27;;
11675;SDS011;5894;42.768;23.404;2023-02-01T07:30:16;7.10;;;4.07;;
11675;SDS011;5894;42.768;23.404;2023-02-01T07:32:44;8.93;;;4.27;;
11675;SDS011;5894;42.768;23.404;2023-02-01T07:35:12;12.57;;;5.40;;
11675;SDS011;5894;42.768;23.404;2023-02-01T07:37:39;9.23;;;5.23;;
11675;SDS011;5894;42.768;23.404;2023-02-01T07:40:07;10.47;;;5.10;;
11675;SDS011;5894;42.768;23.404;2023-02-01T07:42:34;8.17;;;4.90;;
11675;SDS011;5894;42.768;23.404;2023-02-01T07:45:01;9.20;;;4.43;;
11675;SDS011;5894;42.768;23.404;2023-02-01T07:47:28;10.67;;;5.20;;
11675;SDS011;5894;42.768;23.404;2023-02-01T07:49:55;9.33;;;4.97;;
11675;SDS011;5894;42.768;23.404;2023-02-01T07:52:23;9.87;;;5.17;;
11675;SDS011;5894;42.768;23.404;2023-02-01T07:54:50;8.93;;;5.10;;
11675;SDS011;5894;42.768;23.404;2023-02-01T07:57:17;8.77;;;4.17;;
11675;SDS011;5894;42.768;23.404;2023-02-01T07:59:43;9.20;;;4.33;;
11675;SDS011;5894;42.768;23.404;2023-02-01T08:02:24;6.37;;;4.07;;
11675;SDS011;5894;42.768;23.404;2023-02-01T08:04:51;7.27;;;4.00;;
11675;SDS011;5894;42.768;23.404;2023-02-01T08:11:44;8.93;;;3.90;;
11675;SDS011;5894;42.768;23.404;2023-02-01T08:14:10;3.93;;;3.07;;
11675;SDS011;5894;42.768;23.404;2023-02-01T08:16:38;5.93;;;3.47;;
11675;SDS011;5894;42.768;23.404;2023-02-01T08:19:05;6.83;;;2.90;;
11675;SDS011;5894;42.768;23.404;2023-02-01T08:21:32;7.87;;;3.70;;
11675;SDS011;5894;42.768;23.404;2023-02-01T08:24:05;5.27;;;3.33;;
11675;SDS011;5894;42.768;23.404;2023-02-01T08:26:35;5.60;;;3.50;;
11675;SDS011;5894;42.768;23.404;2023-02-01T08:29:03;7.80;;;4.57;;
11675;SDS011;5894;42.768;23.404;2023-02-01T08:31:32;9.90;;;5.30;;
11675;SDS011;5894;42.768;23.404;2023-02-01T08:34:00;6.83;;;4.20;;
11675;SDS011;5894;42.768;23.404;2023-02-01T08:36:29;8.83;;;4.43;;
11675;SDS011;5894;42.768;23.404;2023-02-01T08:38:57;5.13;;;3.40;;
11675;SDS011;5894;42.768;23.404;2023-02-01T08:41:24;8.07;;;3.27;;
11675;SDS011;5894;42.768;23.404;2023-02-01T08:43:52;8.97;;;3.70;;
11675;SDS011;5894;42.768;23.404;2023-02-01T08:46:21;5.90;;;3.70;;
11675;SDS011;5894;42.768;23.404;2023-02-01T08:48:49;7.23;;;3.80;;
11675;SDS011;5894;42.768;23.404;2023-02-01T08:51:16;4.10;;;3.00;;
11675;SDS011;5894;42.768;23.404;2023-02-01T08:53:45;6.90;;;3.10;;
11675;SDS011;5894;42.768;23.404;2023-02-01T08:56:13;9.23;;;4.20;;
11675;SDS011;5894;42.768;23.404;2023-02-01T08:58:41;13.10;;;4.73;;
11675;SDS011;5894;42.768;23.404;2023-02-01T09:01:10;15.63;;;5.63;;
11675;SDS011;5894;42.768;23.404;2023-02-01T09:03:40;17.67;;;7.17;;
11675;SDS011;5894;42.768;23.404;2023-02-01T09:06:07;15.90;;;6.00;;
11675;SDS011;5894;42.768;23.404;2023-02-01T09:08:36;17.33;;;7.77;;
11675;SDS011;5894;42.768;23.404;2023-02-01T09:11:04;17.40;;;7.90;;
11675;SDS011;5894;42.768;23.404;2023-02-01T09:13:33;16.97;;;6.30;;
11675;SDS011;5894;42.768;23.404;2023-02-01T09:16:00;34.47;;;12.40;;
11675;SDS011;5894;42.768;23.404;2023-02-01T09:18:27;23.53;;;9.47;;
11675;SDS011;5894;42.768;23.404;2023-02-01T09:20:55;12.33;;;5.53;;
11675;SDS011;5894;42.768;23.404;2023-02-01T09:23:22;57.93;;;6.17;;
11675;SDS011;5894;42.768;23.404;2023-02-01T09:25:49;45.53;;;5.27;;
11675;SDS011;5894;42.768;23.404;2023-02-01T09:28:17;4.73;;;2.83;;
11675;SDS011;5894;42.768;23.404;2023-02-01T09:30:45;4.43;;;2.37;;
11675;SDS011;5894;42.768;23.404;2023-02-01T09:33:12;4.30;;;2.47;;
11675;SDS011;5894;42.768;23.404;2023-02-01T09:35:39;5.43;;;2.53;;
11675;SDS011;5894;42.768;23.404;2023-02-01T09:38:07;3.97;;;2.63;;
11675;SDS011;5894;42.768;23.404;2023-02-01T09:40:34;12.97;;;4.93;;
11675;SDS011;5894;42.768;23.404;2023-02-01T09:43:11;12.93;;;5.27;;
11675;SDS011;5894;42.768;23.404;2023-02-01T09:45:55;9.23;;;3.60;;
11675;SDS011;5894;42.768;23.404;2023-02-01T09:48:33;7.33;;;3.57;;
11675;SDS011;5894;42.768;23.404;2023-02-01T09:51:06;13.23;;;4.87;;
11675;SDS011;5894;42.768;23.404;2023-02-01T09:53:41;7.07;;;2.90;;
11675;SDS011;5894;42.768;23.404;2023-02-01T09:56:12;5.40;;;2.10;;
11675;SDS011;5894;42.768;23.404;2023-02-01T09:58:42;10.10;;;5.70;;
11675;SDS011;5894;42.768;23.404;2023-02-01T10:01:13;4.93;;;2.53;;
11675;SDS011;5894;42.768;23.404;2023-02-01T10:03:44;5.13;;;2.13;;
11675;SDS011;5894;42.768;23.404;2023-02-01T10:06:24;5.10;;;2.30;;
11675;SDS011;5894;42.768;23.404;2023-02-01T10:09:04;3.60;;;2.00;;
11675;SDS011;5894;42.768;23.404;2023-02-01T10:11:44;3.67;;;2.17;;
11675;SDS011;5894;42.768;23.404;2023-02-01T10:14:29;2.70;;;1.87;;
11675;SDS011;5894;42.768;23.404;2023-02-01T10:17:08;3.67;;;1.60;;
11675;SDS011;5894;42.768;23.404;2023-02-01T10:19:46;5.37;;;2.00;;
11675;SDS011;5894;42.768;23.404;2023-02-01T10:22:25;3.03;;;2.20;;
11675;SDS011;5894;42.768;23.404;2023-02-01T10:25:07;2.87;;;1.73;;
11675;SDS011;5894;42.768;23.404;2023-02-01T10:27:38;2.73;;;1.60;;
11675;SDS011;5894;42.768;23.404;2023-02-01T10:30:13;4.23;;;1.57;;
11675;SDS011;5894;42.768;23.404;2023-02-01T10:32:44;4.70;;;1.90;;
11675;SDS011;5894;42.768;23.404;2023-02-01T10:35:13;6.00;;;1.97;;
11675;SDS011;5894;42.768;23.404;2023-02-01T10:37:42;4.90;;;2.97;;
11675;SDS011;5894;42.768;23.404;2023-02-01T10:40:15;5.97;;;2.80;;
11675;SDS011;5894;42.768;23.404;2023-02-01T10:42:45;4.20;;;2.10;;
11675;SDS011;5894;42.768;23.404;2023-02-01T10:45:13;5.57;;;1.87;;
11675;SDS011;5894;42.768;23.404;2023-02-01T10:47:44;3.67;;;1.90;;
11675;SDS011;5894;42.768;23.404;2023-02-01T10:50:15;3.10;;;1.80;;
11675;SDS011;5894;42.768;23.404;2023-02-01T10:52:46;6.77;;;2.70;;
11675;SDS011;5894;42.768;23.404;2023-02-01T10:55:29;7.27;;;3.63;;
11675;SDS011;5894;42.768;23.404;2023-02-01T10:58:00;8.03;;;3.63;;
11675;SDS011;5894;42.768;23.404;2023-02-01T11:00:42;3.60;;;1.80;;
11675;SDS011;5894;42.768;23.404;2023-02-01T11:03:22;2.33;;;1.80;;
11675;SDS011;5894;42.768;23.404;2023-02-01T11:05:59;3.27;;;1.80;;
11675;SDS011;5894;42.768;23.404;2023-02-01T11:08:27;3.67;;;1.70;;
11675;SDS011;5894;42.768;23.404;2023-02-01T11:10:58;2.20;;;1.83;;
11675;SDS011;5894;42.768;23.404;2023-02-01T11:13:28;4.33;;;2.00;;
11675;SDS011;5894;42.768;23.404;2023-02-01T11:15:57;3.80;;;2.13;;
11675;SDS011;5894;42.768;23.404;2023-02-01T11:18:25;2.47;;;1.50;;
11675;SDS011;5894;42.768;23.404;2023-02-01T11:20:53;4.87;;;1.93;;
11675;SDS011;5894;42.768;23.404;2023-02-01T11:23:21;4.83;;;2.20;;
11675;SDS011;5894;42.768;23.404;2023-02-01T11:25:51;3.23;;;2.20;;
11675;SDS011;5894;42.768;23.404;2023-02-01T11:28:23;4.60;;;2.10;;
11675;SDS011;5894;42.768;23.404;2023-02-01T11:30:53;4.00;;;1.80;;
11675;SDS011;5894;42.768;23.404;2023-02-01T11:33:24;3.73;;;2.10;;
11675;SDS011;5894;42.768;23.404;2023-02-01T11:35:55;4.97;;;2.10;;
11675;SDS011;5894;42.768;23.404;2023-02-01T11:38:25;2.43;;;1.70;;
11675;SDS011;5894;42.768;23.404;2023-02-01T11:41:00;2.93;;;1.90;;
11675;SDS011;5894;42.768;23.404;2023-02-01T11:43:39;3.87;;;1.90;;
11675;SDS011;5894;42.768;23.404;2023-02-01T11:46:19;6.40;;;2.60;;
11675;SDS011;5894;42.768;23.404;2023-02-01T11:48:50;4.00;;;2.33;;
11675;SDS011;5894;42.768;23.404;2023-02-01T11:51:26;4.73;;;2.50;;
11675;SDS011;5894;42.768;23.404;2023-02-01T11:57:09;5.20;;;2.63;;
11675;SDS011;5894;42.768;23.404;2023-02-01T11:59:49;4.13;;;2.37;;
11675;SDS011;5894;42.768;23.404;2023-02-01T12:05:35;3.80;;;1.70;;
11675;SDS011;5894;42.768;23.404;2023-02-01T12:08:14;3.90;;;1.83;;
11675;SDS011;5894;42.768;23.404;2023-02-01T12:11:02;4.50;;;1.90;;
11675;SDS011;5894;42.768;23.404;2023-02-01T12:13:45;3.20;;;1.70;;
11675;SDS011;5894;42.768;23.404;2023-02-01T12:16:26;4.77;;;2.10;;
11675;SDS011;5894;42.768;23.404;2023-02-01T12:19:21;3.00;;;1.70;;
11675;SDS011;5894;42.768;23.404;2023-02-01T12:21:56;5.50;;;1.73;;
11675;SDS011;5894;42.768;23.404;2023-02-01T12:24:43;4.97;;;2.00;;
11675;SDS011;5894;42.768;23.404;2023-02-01T12:27:40;3.93;;;2.10;;
11675;SDS011;5894;42.768;23.404;2023-02-01T12:30:20;3.77;;;2.13;;
11675;SDS011;5894;42.768;23.404;2023-02-01T12:33:07;4.23;;;2.03;;
11675;SDS011;5894;42.768;23.404;2023-02-01T12:35:48;5.13;;;2.27;;
11675;SDS011;5894;42.768;23.404;2023-02-01T12:38:28;3.50;;;1.87;;
11675;SDS011;5894;42.768;23.404;2023-02-01T12:41:09;3.90;;;2.23;;
11675;SDS011;5894;42.768;23.404;2023-02-01T12:43:54;3.43;;;1.90;;
11675;SDS011;5894;42.768;23.404;2023-02-01T12:46:26;2.93;;;1.80;;
11675;SDS011;5894;42.768;23.404;2023-02-01T12:49:00;2.87;;;1.70;;
11675;SDS011;5894;42.768;23.404;2023-02-01T12:51:35;3.03;;;1.70;;
11675;SDS011;5894;42.768;23.404;2023-02-01T12:54:06;2.80;;;1.70;;
11675;SDS011;5894;42.768;23.404;2023-02-01T12:56:42;2.90;;;1.70;;
11675;SDS011;5894;42.768;23.404;2023-02-01T12:59:15;2.50;;;1.50;;
11675;SDS011;5894;42.768;23.404;2023-02-01T13:01:50;4.40;;;1.90;;
11675;SDS011;5894;42.768;23.404;2023-02-01T13:04:27;3.30;;;1.83;;
11675;SDS011;5894;42.768;23.404;2023-02-01T13:07:01;3.47;;;1.67;;
11675;SDS011;5894;42.768;23.404;2023-02-01T13:09:36;3.33;;;2.17;;
11675;SDS011;5894;42.768;23.404;2023-02-01T13:12:08;2.60;;;1.60;;
11675;SDS011;5894;42.768;23.404;2023-02-01T13:14:40;4.23;;;1.97;;
11675;SDS011;5894;42.768;23.404;2023-02-01T13:17:12;2.63;;;1.70;;
11675;SDS011;5894;42.768;23.404;2023-02-01T13:19:44;2.07;;;1.43;;
11675;SDS011;5894;42.768;23.404;2023-02-01T13:22:17;2.00;;;1.50;;
11675;SDS011;5894;42.768;23.404;2023-02-01T13:24:50;3.63;;;1.80;;
11675;SDS011;5894;42.768;23.404;2023-02-01T13:27:21;3.00;;;1.67;;
11675;SDS011;5894;42.768;23.404;2023-02-01T13:29:53;4.03;;;1.90;;
11675;SDS011;5894;42.768;23.404;2023-02-01T13:32:39;2.20;;;1.60;;
11675;SDS011;5894;42.768;23.404;2023-02-01T13:35:37;2.30;;;1.70;;
11675;SDS011;5894;42.768;23.404;2023-02-01T13:38:36;4.53;;;1.73;;
11675;SDS011;5894;42.768;23.404;2023-02-01T13:41:25;3.00;;;1.80;;
11675;SDS011;5894;42.768;23.404;2023-02-01T13:43:56;3.87;;;2.00;;
11675;SDS011;5894;42.768;23.404;2023-02-01T13:46:26;3.70;;;2.00;;
11675;SDS011;5894;42.768;23.404;2023-02-01T13:48:55;3.10;;;1.60;;
11675;SDS011;5894;42.768;23.404;2023-02-01T13:51:32;4.73;;;2.60;;
11675;SDS011;5894;42.768;23.404;2023-02-01T13:54:01;3.93;;;2.10;;
11675;SDS011;5894;42.768;23.404;2023-02-01T13:56:39;3.10;;;1.77;;
11675;SDS011;5894;42.768;23.404;2023-02-01T14:05:06;3.00;;;1.53;;
11675;SDS011;5894;42.768;23.404;2023-02-01T14:07:36;2.90;;;1.63;;
11675;SDS011;5894;42.768;23.404;2023-02-01T14:10:46;4.07;;;2.00;;
11675;SDS011;5894;42.768;23.404;2023-02-01T14:13:22;4.23;;;1.87;;
11675;SDS011;5894;42.768;23.404;2023-02-01T14:16:12;4.33;;;2.13;;
11675;SDS011;5894;42.768;23.404;2023-02-01T14:18:57;4.47;;;1.90;;
11675;SDS011;5894;42.768;23.404;2023-02-01T14:21:27;3.37;;;2.10;;
11675;SDS011;5894;42.768;23.404;2023-02-01T14:23:59;2.97;;;1.77;;
11675;SDS011;5894;42.768;23.404;2023-02-01T14:26:40;4.10;;;1.73;;
11675;SDS011;5894;42.768;23.404;2023-02-01T14:29:19;3.10;;;1.83;;
11675;SDS011;5894;42.768;23.404;2023-02-01T14:32:02;4.20;;;1.70;;
11675;SDS011;5894;42.768;23.404;2023-02-01T14:34:35;3.37;;;1.90;;
11675;SDS011;5894;42.768;23.404;2023-02-01T14:37:08;3.33;;;1.80;;
11675;SDS011;5894;42.768;23.404;2023-02-01T14:39:46;3.07;;;1.70;;
11675;SDS011;5894;42.768;23.404;2023-02-01T14:42:22;2.77;;;1.77;;
11675;SDS011;5894;42.768;23.404;2023-02-01T14:44:52;3.53;;;1.73;;
11675;SDS011;5894;42.768;23.404;2023-02-01T14:47:32;3.47;;;1.80;;
11675;SDS011;5894;42.768;23.404;2023-02-01T14:52:59;2.03;;;1.70;;
11675;SDS011;5894;42.768;23.404;2023-02-01T14:55:37;3.20;;;1.70;;
11675;SDS011;5894;42.768;23.404;2023-02-01T14:58:12;3.40;;;2.10;;
11675;SDS011;5894;42.768;23.404;2023-02-01T15:00:49;4.27;;;2.00;;
11675;SDS011;5894;42.768;23.404;2023-02-01T15:03:30;4.30;;;2.07;;
11675;SDS011;5894;42.768;23.404;2023-02-01T15:06:13;2.70;;;1.90;;
11675;SDS011;5894;42.768;23.404;2023-02-01T15:08:49;5.10;;;2.20;;
11675;SDS011;5894;42.768;23.404;2023-02-01T15:11:22;4.33;;;1.93;;
11675;SDS011;5894;42.768;23.404;2023-02-01T15:13:49;4.37;;;1.90;;
11675;SDS011;5894;42.768;23.404;2023-02-01T15:16:20;3.57;;;1.90;;
11675;SDS011;5894;42.768;23.404;2023-02-01T15:18:48;4.20;;;2.10;;
11675;SDS011;5894;42.768;23.404;2023-02-01T15:21:16;3.20;;;2.00;;
11675;SDS011;5894;42.768;23.404;2023-02-01T15:23:45;3.67;;;2.47;;
11675;SDS011;5894;42.768;23.404;2023-02-01T15:26:28;4.40;;;2.40;;
11675;SDS011;5894;42.768;23.404;2023-02-01T15:28:56;5.87;;;2.17;;
11675;SDS011;5894;42.768;23.404;2023-02-01T15:31:33;5.13;;;2.60;;
11675;SDS011;5894;42.768;23.404;2023-02-01T15:34:01;5.60;;;2.60;;
11675;SDS011;5894;42.768;23.404;2023-02-01T15:36:28;4.50;;;2.53;;